LFSTLFLX

Guest
Details From LFST - Entzheim
To LFLX - Chateauroux Deols
Flight Number -
Tags generated
Created
Modified
Stats Distance 266 nm / 493 km
Max Altitude 18,500 ft / 5,639 m
Waypoints 5
Social Downloads 0
Likes 0
Share VATSIM

Download

Looking for another format? Having issues loading an existing format? Contact us
Advertisement - Login to hide

Notes

Basic altitude profile: - Ascent Rate: 700ft/min - Ascent Speed: 150kts - Cruise Altitude: 450000ft - Cruise Speed: 420kts - Descent Rate: 400ft/min - Descent Speed: 250kts

Route

LFST LUVAL UT15 OKRIX LFLX

ID Type Via Altitude Latitude Longitude Leg Dist Tot Dist Heading (true) Name
O LFST APT - 0 ft / 0 m 48.53833˚ 7.62826˚ - 0 nm - Entzheim
LUVAL FIX - 9,500 ft / 2,896 m 48.29389˚ 5.15361˚ 99 nm 99 nm 262° / 261° -
BOLLY FIX UT15 (AWY-HI) 18,500 ft / 5,639 m 48.09194˚ 4.15111˚ 41 nm 141 nm 254° / 253° -
OKRIX FIX UT15 (AWY-HI) 18,500 ft / 5,639 m 47.96611˚ 3.56750˚ 24 nm 166 nm 252° / 252° -
O LFLX APT - 0 ft / 0 m 46.86375˚ 1.73167˚ 99 nm 266 nm 229° / 228° Chateauroux Deols

Altitude Profile

Advertisement - Login to hide

Weather


0- 5 10 15 20 25 30 35+ Temperature / ° C

Clouds and Precipitation
Forecast for 2017-12-12 06:00 UTC. Updated 2 hours ago

Ground ~20,000 ft ~40,000 ft Winds

LFST

Details ICAO LFST (SXB)
Name Entzheim
Region France
Timezone Europe/Paris (UTC+1.0)
Stats Elevation 504 ft / 154 m (AMSL)
Location 48.538335° 7.628265°
Runways 1
Magnetic Variation 2.103° E

METAR

LFST 120700Z AUTO 23011KT 9999 FEW008 OVC050 04/00 Q1007 TEMPO SCT040TCU

Decode

TAF

TAF LFST 120500Z 1206/1306 22008KT 9999 BKN040 PROB40 TEMPO 1208/1214 -SHRA SCT040TCU PROB30 TEMPO 1300/1306 BKN006

Decode

Departure Runways

ID Width Length Bearing (true) Bearing (mag) Surface Threshold Offset Overrun Length
05 148 ft / 45 m 7,899 ft / 2,408 m 48.60° 46.50° Asphalt 0 ft / 0 m 860 ft / 262 m
23 148 ft / 45 m 7,899 ft / 2,408 m 228.62° 226.52° Asphalt 0 ft / 0 m 902 ft / 275 m

LFLX

Details ICAO LFLX (CHR)
Name Chateauroux Deols
Region France
Timezone Europe/Paris (UTC+1.0)
Stats Elevation 529 ft / 161 m (AMSL)
Location 46.863750° 1.731667°
Runways 1
Magnetic Variation 0.525° E

METAR

LFLX 120700Z AUTO 24004KT CAVOK M01/M01 Q1011

Decode

TAF

Not found

Destination Runways

ID Width Length Bearing (true) Bearing (mag) Surface Threshold Offset Overrun Length
04 148 ft / 45 m 11,473 ft / 3,497 m 32.92° 32.40° Concrete 0 ft / 0 m 0 ft / 0 m
22 148 ft / 45 m 11,473 ft / 3,497 m 212.94° 212.42° Concrete 0 ft / 0 m 0 ft / 0 m

Approach Navaids

Runway Type Ident Frequency Range Bearing (true) Bearing (mag) Slope Elevation
22 Localiser CX 110.30 MHz 18 nm / 33 km 213.11° 212.59° - 522 ft / 159 m (AMSL)
22 Glidescope CX 110.30 MHz 10 nm / 19 km 212.93° 212.41° 3.00° 522 ft / 159 m (AMSL)
22 DME CX 110.30 MHz 18 nm / 33 km - - - 577 ft / 176 m (AMSL)